sensor_id;sensor_type;location;lat;lon;timestamp;pressure;altitude;pressure_sealevel;temperature;humidity
79230;BME280;68663;49.122;17.544;2023-06-26T00:02:13;99422.41;;;26.17;45.33
79230;BME280;68663;49.122;17.544;2023-06-26T00:04:39;99428.94;;;26.14;44.70
79230;BME280;68663;49.122;17.544;2023-06-26T00:07:05;99428.16;;;26.14;45.33
79230;BME280;68663;49.122;17.544;2023-06-26T00:09:30;99434.25;;;26.12;45.33
79230;BME280;68663;49.122;17.544;2023-06-26T00:11:56;99422.94;;;26.12;44.99
79230;BME280;68663;49.122;17.544;2023-06-26T00:14:21;99425.41;;;26.10;45.42
79230;BME280;68663;49.122;17.544;2023-06-26T00:16:47;99424.97;;;26.12;45.18
79230;BME280;68663;49.122;17.544;2023-06-26T00:19:15;99424.16;;;26.11;45.35
79230;BME280;68663;49.122;17.544;2023-06-26T00:21:40;99426.56;;;26.13;45.28
79230;BME280;68663;49.122;17.544;2023-06-26T00:24:06;99422.94;;;26.12;45.32
79230;BME280;68663;49.122;17.544;2023-06-26T00:26:31;99430.63;;;26.12;45.28
79230;BME280;68663;49.122;17.544;2023-06-26T00:28:57;99431.44;;;26.12;45.18
79230;BME280;68663;49.122;17.544;2023-06-26T00:31:22;99432.66;;;26.11;45.11
79230;BME280;68663;49.122;17.544;2023-06-26T00:33:47;99429.84;;;26.11;44.96
79230;BME280;68663;49.122;17.544;2023-06-26T00:36:13;99424.97;;;26.12;45.20
79230;BME280;68663;49.122;17.544;2023-06-26T00:38:39;99419.75;;;26.10;45.11
79230;BME280;68663;49.122;17.544;2023-06-26T00:41:05;99423.38;;;26.11;45.24
79230;BME280;68663;49.122;17.544;2023-06-26T00:43:37;99428.25;;;26.10;45.19
79230;BME280;68663;49.122;17.544;2023-06-26T00:46:02;99422.56;;;26.10;45.29
79230;BME280;68663;49.122;17.544;2023-06-26T00:48:28;99425.41;;;26.10;45.14
79230;BME280;68663;49.122;17.544;2023-06-26T00:50:53;99423.47;;;26.07;44.93
79230;BME280;68663;49.122;17.544;2023-06-26T00:53:18;99418.69;;;26.04;44.96
79230;BME280;68663;49.122;17.544;2023-06-26T00:55:44;99418.69;;;26.04;44.96
79230;BME280;68663;49.122;17.544;2023-06-26T00:58:10;99426.44;;;26.00;45.18
79230;BME280;68663;49.122;17.544;2023-06-26T01:00:36;99428.47;;;25.99;45.08
79230;BME280;68663;49.122;17.544;2023-06-26T01:03:01;99420.41;;;25.98;45.25
79230;BME280;68663;49.122;17.544;2023-06-26T01:05:28;99417.13;;;25.99;44.77
79230;BME280;68663;49.122;17.544;2023-06-26T01:07:54;99418.72;;;26.00;44.99
79230;BME280;68663;49.122;17.544;2023-06-26T01:10:20;99426.03;;;26.01;45.24
79230;BME280;68663;49.122;17.544;2023-06-26T01:12:45;99415.50;;;26.02;45.07
79230;BME280;68663;49.122;17.544;2023-06-26T01:15:11;99421.16;;;26.02;45.03
79230;BME280;68663;49.122;17.544;2023-06-26T01:17:37;99426.81;;;26.02;45.55
79230;BME280;68663;49.122;17.544;2023-06-26T01:20:05;99426.81;;;26.02;45.04
79230;BME280;68663;49.122;17.544;2023-06-26T01:22:39;99425.22;;;26.01;45.43
79230;BME280;68663;49.122;17.544;2023-06-26T01:27:50;99419.56;;;26.01;45.16
79230;BME280;68663;49.122;17.544;2023-06-26T01:30:18;99414.69;;;26.01;45.22
79230;BME280;68663;49.122;17.544;2023-06-26T01:32:45;99410.22;;;26.00;44.99
79230;BME280;68663;49.122;17.544;2023-06-26T01:35:11;99415.91;;;26.00;45.01
79230;BME280;68663;49.122;17.544;2023-06-26T01:37:37;99402.97;;;25.99;45.10
79230;BME280;68663;49.122;17.544;2023-06-26T01:40:03;99396.16;;;25.97;45.14
79230;BME280;68663;49.122;17.544;2023-06-26T01:42:31;99405.91;;;25.96;44.90
79230;BME280;68663;49.122;17.544;2023-06-26T01:45:02;99397.84;;;25.94;45.36
79230;BME280;68663;49.122;17.544;2023-06-26T01:47:32;99406.44;;;25.91;45.33
79230;BME280;68663;49.122;17.544;2023-06-26T01:50:14;99392.25;;;25.91;45.04
79230;BME280;68663;49.122;17.544;2023-06-26T01:55:16;99391.09;;;25.88;44.99
79230;BME280;68663;49.122;17.544;2023-06-26T01:57:45;99387.84;;;25.90;45.15
79230;BME280;68663;49.122;17.544;2023-06-26T02:00:14;99389.44;;;25.91;45.19
79230;BME280;68663;49.122;17.544;2023-06-26T02:02:43;99392.25;;;25.91;45.10
79230;BME280;68663;49.122;17.544;2023-06-26T02:05:08;99389.44;;;25.91;45.16
79230;BME280;68663;49.122;17.544;2023-06-26T02:07:34;99391.03;;;25.92;45.04
79230;BME280;68663;49.122;17.544;2023-06-26T02:09:59;99395.44;;;25.93;45.10
79230;BME280;68663;49.122;17.544;2023-06-26T02:12:25;99397.94;;;25.91;45.09
79230;BME280;68663;49.122;17.544;2023-06-26T02:14:51;99398.72;;;25.91;45.29
79230;BME280;68663;49.122;17.544;2023-06-26T02:17:16;99402.78;;;25.90;45.26
79230;BME280;68663;49.122;17.544;2023-06-26T02:19:42;99395.09;;;25.91;45.23
79230;BME280;68663;49.122;17.544;2023-06-26T02:22:13;99403.59;;;25.91;45.09
79230;BME280;68663;49.122;17.544;2023-06-26T02:24:39;99402.78;;;25.90;45.02
79230;BME280;68663;49.122;17.544;2023-06-26T02:27:04;99396.88;;;25.85;45.22
79230;BME280;68663;49.122;17.544;2023-06-26T02:29:29;99405.34;;;25.85;45.41
79230;BME280;68663;49.122;17.544;2023-06-26T02:31:55;99407.84;;;25.83;45.01
79230;BME280;68663;49.122;17.544;2023-06-26T02:34:20;99402.16;;;25.83;45.12
79230;BME280;68663;49.122;17.544;2023-06-26T02:36:46;99403.84;;;25.80;45.11
79230;BME280;68663;49.122;17.544;2023-06-26T02:39:11;99410.75;;;25.79;45.50
79230;BME280;68663;49.122;17.544;2023-06-26T02:41:36;99408.38;;;25.78;45.64
79230;BME280;68663;49.122;17.544;2023-06-26T02:44:02;99411.19;;;25.78;45.10
79230;BME280;68663;49.122;17.544;2023-06-26T02:46:27;99414.81;;;25.78;45.16
79230;BME280;68663;49.122;17.544;2023-06-26T02:48:53;99414.38;;;25.80;45.23
79230;BME280;68663;49.122;17.544;2023-06-26T02:51:18;99413.16;;;25.81;45.36
79230;BME280;68663;49.122;17.544;2023-06-26T02:53:44;99421.66;;;25.81;45.39
79230;BME280;68663;49.122;17.544;2023-06-26T02:56:09;99415.97;;;25.81;45.09
79230;BME280;68663;49.122;17.544;2023-06-26T02:58:34;99415.97;;;25.81;45.38
79230;BME280;68663;49.122;17.544;2023-06-26T03:01:00;99409.50;;;25.80;45.39
79230;BME280;68663;49.122;17.544;2023-06-26T03:03:25;99416.78;;;25.81;45.23
79230;BME280;68663;49.122;17.544;2023-06-26T03:05:51;99415.97;;;25.81;45.32
79230;BME280;68663;49.122;17.544;2023-06-26T03:08:16;99418.81;;;25.81;45.26
79230;BME280;68663;49.122;17.544;2023-06-26T03:10:41;99415.97;;;25.81;45.54
79230;BME280;68663;49.122;17.544;2023-06-26T03:13:07;99407.91;;;25.79;45.52
79230;BME280;68663;49.122;17.544;2023-06-26T03:15:32;99412.44;;;25.77;45.49
79230;BME280;68663;49.122;17.544;2023-06-26T03:17:57;99416.16;;;25.74;45.44
79230;BME280;68663;49.122;17.544;2023-06-26T03:20:23;99414.13;;;25.74;45.21
79230;BME280;68663;49.122;17.544;2023-06-26T03:22:48;99408.44;;;25.74;45.13
79230;BME280;68663;49.122;17.544;2023-06-26T03:25:14;99401.97;;;25.74;45.12
79230;BME280;68663;49.122;17.544;2023-06-26T03:27:39;99400.03;;;25.70;45.04
79230;BME280;68663;49.122;17.544;2023-06-26T03:30:05;99400.91;;;25.67;45.66
79230;BME280;68663;49.122;17.544;2023-06-26T03:32:31;99406.94;;;25.69;45.33
79230;BME280;68663;49.122;17.544;2023-06-26T03:34:56;99404.91;;;25.70;45.34
79230;BME280;68663;49.122;17.544;2023-06-26T03:37:22;99406.94;;;25.69;45.06
79230;BME280;68663;49.122;17.544;2023-06-26T03:39:47;99400.03;;;25.70;45.24
79230;BME280;68663;49.122;17.544;2023-06-26T03:42:12;99411.38;;;25.70;45.39
79230;BME280;68663;49.122;17.544;2023-06-26T03:44:38;99414.19;;;25.70;45.28
79230;BME280;68663;49.122;17.544;2023-06-26T03:47:03;99411.38;;;25.70;45.17
79230;BME280;68663;49.122;17.544;2023-06-26T03:49:29;99419.84;;;25.70;45.29
79230;BME280;68663;49.122;17.544;2023-06-26T03:51:54;99422.69;;;25.70;45.12
79230;BME280;68663;49.122;17.544;2023-06-26T03:54:19;99425.53;;;25.70;45.37
79230;BME280;68663;49.122;17.544;2023-06-26T03:56:45;99426.75;;;25.69;45.24
79230;BME280;68663;49.122;17.544;2023-06-26T03:59:10;99429.59;;;25.69;45.50
79230;BME280;68663;49.122;17.544;2023-06-26T04:01:37;99428.00;;;25.68;45.53
79230;BME280;68663;49.122;17.544;2023-06-26T04:04:03;99436.53;;;25.65;45.71
79230;BME280;68663;49.122;17.544;2023-06-26T04:06:28;99430.09;;;25.64;45.60
79230;BME280;68663;49.122;17.544;2023-06-26T04:08:56;99438.56;;;25.64;45.72
79230;BME280;68663;49.122;17.544;2023-06-26T04:11:22;99434.16;;;25.63;45.68
79230;BME280;68663;49.122;17.544;2023-06-26T04:13:47;99438.22;;;25.62;46.02
79230;BME280;68663;49.122;17.544;2023-06-26T04:16:13;99434.66;;;25.58;45.94
79230;BME280;68663;49.122;17.544;2023-06-26T04:18:38;99439.91;;;25.60;46.44
79230;BME280;68663;49.122;17.544;2023-06-26T04:21:13;99428.94;;;25.62;46.23
79230;BME280;68663;49.122;17.544;2023-06-26T04:23:39;99429.38;;;25.60;46.41
79230;BME280;68663;49.122;17.544;2023-06-26T04:26:06;99427.41;;;25.57;46.40
79230;BME280;68663;49.122;17.544;2023-06-26T04:28:32;99429.44;;;25.57;46.54
79230;BME280;68663;49.122;17.544;2023-06-26T04:30:59;99429.38;;;25.60;46.39
79230;BME280;68663;49.122;17.544;2023-06-26T04:33:25;99426.09;;;25.62;46.31
79230;BME280;68663;49.122;17.544;2023-06-26T04:35:51;99420.44;;;25.62;46.03
79230;BME280;68663;49.122;17.544;2023-06-26T04:38:17;99426.09;;;25.62;46.15
79230;BME280;68663;49.122;17.544;2023-06-26T04:40:42;99435.38;;;25.62;46.24
79230;BME280;68663;49.122;17.544;2023-06-26T04:43:07;99430.53;;;25.63;46.37
79230;BME280;68663;49.122;17.544;2023-06-26T04:45:33;99425.66;;;25.63;46.13
79230;BME280;68663;49.122;17.544;2023-06-26T04:47:58;99422.47;;;25.61;46.26
79230;BME280;68663;49.122;17.544;2023-06-26T04:50:25;99427.78;;;25.59;46.34
79230;BME280;68663;49.122;17.544;2023-06-26T04:52:51;99432.19;;;25.60;45.99
79230;BME280;68663;49.122;17.544;2023-06-26T04:55:16;99423.00;;;25.56;46.38
79230;BME280;68663;49.122;17.544;2023-06-26T04:57:42;99418.13;;;25.57;46.34
79230;BME280;68663;49.122;17.544;2023-06-26T05:00:07;99424.59;;;25.57;46.43
79230;BME280;68663;49.122;17.544;2023-06-26T05:02:36;99426.97;;;25.59;46.29
79230;BME280;68663;49.122;17.544;2023-06-26T05:05:01;99428.66;;;25.56;46.38
79230;BME280;68663;49.122;17.544;2023-06-26T05:07:27;99425.31;;;25.61;46.55
79230;BME280;68663;49.122;17.544;2023-06-26T05:09:52;99431.41;;;25.60;46.59
79230;BME280;68663;49.122;17.544;2023-06-26T05:12:17;99420.59;;;25.55;46.30
79230;BME280;68663;49.122;17.544;2023-06-26T05:14:43;99426.91;;;25.62;46.39
79230;BME280;68663;49.122;17.544;2023-06-26T05:17:08;99427.69;;;25.63;46.44
79230;BME280;68663;49.122;17.544;2023-06-26T05:19:34;99423.22;;;25.65;46.20
79230;BME280;68663;49.122;17.544;2023-06-26T05:22:00;99428.50;;;25.63;46.19
79230;BME280;68663;49.122;17.544;2023-06-26T05:24:30;99428.50;;;25.63;46.20
79230;BME280;68663;49.122;17.544;2023-06-26T05:26:56;99431.75;;;25.62;46.21
79230;BME280;68663;49.122;17.544;2023-06-26T05:29:22;99426.91;;;25.62;45.69
79230;BME280;68663;49.122;17.544;2023-06-26T05:31:48;99428.06;;;25.65;46.27
79230;BME280;68663;49.122;17.544;2023-06-26T05:34:15;99428.44;;;25.67;46.26
79230;BME280;68663;49.122;17.544;2023-06-26T05:36:42;99429.22;;;25.67;46.21
79230;BME280;68663;49.122;17.544;2023-06-26T05:39:09;99431.97;;;25.71;46.27
79230;BME280;68663;49.122;17.544;2023-06-26T05:41:34;99421.44;;;25.71;46.56
79230;BME280;68663;49.122;17.544;2023-06-26T05:44:00;99420.22;;;25.73;46.73
79230;BME280;68663;49.122;17.544;2023-06-26T05:46:25;99423.41;;;25.75;46.94
79230;BME280;68663;49.122;17.544;2023-06-26T05:48:51;99420.13;;;25.76;46.68
79230;BME280;68663;49.122;17.544;2023-06-26T05:51:16;99422.16;;;25.76;46.99
79230;BME280;68663;49.122;17.544;2023-06-26T05:53:42;99424.91;;;25.79;46.93
79230;BME280;68663;49.122;17.544;2023-06-26T05:56:08;99422.88;;;25.80;47.05
79230;BME280;68663;49.122;17.544;2023-06-26T05:58:34;99420.41;;;25.82;46.65
79230;BME280;68663;49.122;17.544;2023-06-26T06:00:59;99429.25;;;25.84;46.75
79230;BME280;68663;49.122;17.544;2023-06-26T06:03:25;99426.78;;;25.86;46.41
79230;BME280;68663;49.122;17.544;2023-06-26T06:05:50;99427.13;;;25.88;46.46
79230;BME280;68663;49.122;17.544;2023-06-26T06:08:16;99430.31;;;25.90;46.18
79230;BME280;68663;49.122;17.544;2023-06-26T06:10:41;99432.72;;;25.91;46.34
79230;BME280;68663;49.122;17.544;2023-06-26T06:13:07;99430.25;;;25.93;46.44
79230;BME280;68663;49.122;17.544;2023-06-26T06:15:32;99429.81;;;25.95;46.09
79230;BME280;68663;49.122;17.544;2023-06-26T06:17:57;99426.53;;;25.96;46.10
79230;BME280;68663;49.122;17.544;2023-06-26T06:20:23;99428.91;;;25.98;46.08
79230;BME280;68663;49.122;17.544;2023-06-26T06:22:48;99424.03;;;25.98;46.21
79230;BME280;68663;49.122;17.544;2023-06-26T06:25:14;99425.63;;;25.99;46.20
79230;BME280;68663;49.122;17.544;2023-06-26T06:27:40;99423.59;;;26.00;46.33
79230;BME280;68663;49.122;17.544;2023-06-26T06:30:06;99423.19;;;26.01;46.21
79230;BME280;68663;49.122;17.544;2023-06-26T06:32:32;99421.94;;;26.02;46.43
79230;BME280;68663;49.122;17.544;2023-06-26T06:34:57;99423.53;;;26.03;46.33
79230;BME280;68663;49.122;17.544;2023-06-26T06:37:23;99415.84;;;26.04;46.44
79230;BME280;68663;49.122;17.544;2023-06-26T06:39:48;99421.06;;;26.06;46.51
79230;BME280;68663;49.122;17.544;2023-06-26T06:42:13;99412.13;;;26.07;46.53
79230;BME280;68663;49.122;17.544;2023-06-26T06:44:39;99413.72;;;26.08;46.22
79230;BME280;68663;49.122;17.544;2023-06-26T06:47:04;99419.75;;;26.10;46.74
79230;BME280;68663;49.122;17.544;2023-06-26T06:49:30;99410.00;;;26.11;46.31
79230;BME280;68663;49.122;17.544;2023-06-26T06:51:55;99413.19;;;26.13;46.56
79230;BME280;68663;49.122;17.544;2023-06-26T06:54:21;99412.75;;;26.15;46.63
79230;BME280;68663;49.122;17.544;2023-06-26T06:56:46;99416.38;;;26.15;46.48
79230;BME280;68663;49.122;17.544;2023-06-26T06:59:12;99413.88;;;26.17;46.58
79230;BME280;68663;49.122;17.544;2023-06-26T07:01:39;99415.03;;;26.20;46.63
79230;BME280;68663;49.122;17.544;2023-06-26T07:04:05;99415.84;;;26.20;46.31
79230;BME280;68663;49.122;17.544;2023-06-26T07:06:30;99406.09;;;26.21;46.44
79230;BME280;68663;49.122;17.544;2023-06-26T07:08:56;99407.69;;;26.22;45.97
79230;BME280;68663;49.122;17.544;2023-06-26T07:11:21;99408.03;;;26.24;46.22
79230;BME280;68663;49.122;17.544;2023-06-26T07:13:47;99405.22;;;26.24;46.38
79230;BME280;68663;49.122;17.544;2023-06-26T07:16:12;99410.44;;;26.26;46.42
79230;BME280;68663;49.122;17.544;2023-06-26T07:18:40;99408.41;;;26.26;46.25
79230;BME280;68663;49.122;17.544;2023-06-26T07:21:05;99406.81;;;26.25;46.35
79230;BME280;68663;49.122;17.544;2023-06-26T07:23:31;99403.53;;;26.27;46.24
79230;BME280;68663;49.122;17.544;2023-06-26T07:25:56;99404.31;;;26.27;46.46
79230;BME280;68663;49.122;17.544;2023-06-26T07:28:22;99403.53;;;26.27;46.28
79230;BME280;68663;49.122;17.544;2023-06-26T07:30:47;99407.50;;;26.29;46.37
79230;BME280;68663;49.122;17.544;2023-06-26T07:33:12;99411.94;;;26.30;46.14
79230;BME280;68663;49.122;17.544;2023-06-26T07:35:38;99419.19;;;26.31;46.39
79230;BME280;68663;49.122;17.544;2023-06-26T07:38:03;99413.53;;;26.31;46.00
79230;BME280;68663;49.122;17.544;2023-06-26T07:40:29;99413.13;;;26.33;46.06
79230;BME280;68663;49.122;17.544;2023-06-26T07:42:54;99413.91;;;26.33;46.13
79230;BME280;68663;49.122;17.544;2023-06-26T07:45:19;99409.84;;;26.34;46.03
79230;BME280;68663;49.122;17.544;2023-06-26T07:47:45;99411.44;;;26.36;46.13
79230;BME280;68663;49.122;17.544;2023-06-26T07:50:11;99407.34;;;26.37;46.37
79230;BME280;68663;49.122;17.544;2023-06-26T07:52:37;99407.34;;;26.37;46.23
79230;BME280;68663;49.122;17.544;2023-06-26T07:55:03;99408.94;;;26.38;46.31
79230;BME280;68663;49.122;17.544;2023-06-26T07:57:29;99412.56;;;26.38;46.22
79230;BME280;68663;49.122;17.544;2023-06-26T07:59:55;99410.53;;;26.39;46.33
79230;BME280;68663;49.122;17.544;2023-06-26T08:02:21;99404.88;;;26.39;46.35
79230;BME280;68663;49.122;17.544;2023-06-26T08:04:46;99408.50;;;26.39;46.88
79230;BME280;68663;49.122;17.544;2023-06-26T08:07:12;99410.53;;;26.39;46.28
79230;BME280;68663;49.122;17.544;2023-06-26T08:09:39;99408.50;;;26.39;46.90
79230;BME280;68663;49.122;17.544;2023-06-26T08:12:04;99402.03;;;26.39;46.75
79230;BME280;68663;49.122;17.544;2023-06-26T08:14:30;99408.50;;;26.39;46.61
79230;BME280;68663;49.122;17.544;2023-06-26T08:16:56;99412.13;;;26.40;46.55
79230;BME280;68663;49.122;17.544;2023-06-26T08:19:22;99401.59;;;26.40;46.52
79230;BME280;68663;49.122;17.544;2023-06-26T08:21:48;99408.06;;;26.41;46.48
79230;BME280;68663;49.122;17.544;2023-06-26T08:24:13;99402.38;;;26.41;46.50
79230;BME280;68663;49.122;17.544;2023-06-26T08:26:41;99400.34;;;26.41;46.53
79230;BME280;68663;49.122;17.544;2023-06-26T08:29:06;99398.31;;;26.42;46.70
79230;BME280;68663;49.122;17.544;2023-06-26T08:31:35;99399.91;;;26.43;47.02
79230;BME280;68663;49.122;17.544;2023-06-26T08:34:02;99397.88;;;26.43;47.88
79230;BME280;68663;49.122;17.544;2023-06-26T08:36:30;99396.63;;;26.44;47.83
79230;BME280;68663;49.122;17.544;2023-06-26T08:38:56;99399.44;;;26.44;47.76
79230;BME280;68663;49.122;17.544;2023-06-26T08:41:21;99395.81;;;26.44;47.22
79230;BME280;68663;49.122;17.544;2023-06-26T08:43:47;99395.81;;;26.44;47.87
79230;BME280;68663;49.122;17.544;2023-06-26T08:46:14;99387.31;;;26.44;47.80
79230;BME280;68663;49.122;17.544;2023-06-26T08:48:41;99387.31;;;26.44;48.17
79230;BME280;68663;49.122;17.544;2023-06-26T08:51:12;99389.34;;;26.43;48.20
79230;BME280;68663;49.122;17.544;2023-06-26T08:56:15;99385.28;;;26.44;47.88
79230;BME280;68663;49.122;17.544;2023-06-26T08:58:42;99389.34;;;26.43;48.31
79230;BME280;68663;49.122;17.544;2023-06-26T09:01:08;99389.34;;;26.43;47.73
79230;BME280;68663;49.122;17.544;2023-06-26T09:03:35;99372.34;;;26.43;47.76
79230;BME280;68663;49.122;17.544;2023-06-26T09:06:00;99384.47;;;26.44;47.56
79230;BME280;68663;49.122;17.544;2023-06-26T09:08:26;99378.00;;;26.43;47.36
79230;BME280;68663;49.122;17.544;2023-06-26T09:10:52;99384.13;;;26.42;47.10
79230;BME280;68663;49.122;17.544;2023-06-26T09:13:18;99380.06;;;26.43;47.10
79230;BME280;68663;49.122;17.544;2023-06-26T09:15:45;99384.13;;;26.42;46.90
79230;BME280;68663;49.122;17.544;2023-06-26T09:18:11;99377.66;;;26.41;47.04
79230;BME280;68663;49.122;17.544;2023-06-26T09:20:37;99383.34;;;26.41;46.76
79230;BME280;68663;49.122;17.544;2023-06-26T09:23:03;99371.53;;;26.43;46.77
79230;BME280;68663;49.122;17.544;2023-06-26T09:25:29;99369.06;;;26.45;47.24
79230;BME280;68663;49.122;17.544;2023-06-26T09:27:56;99373.50;;;26.46;47.25
79230;BME280;68663;49.122;17.544;2023-06-26T09:30:21;99369.06;;;26.45;47.23
79230;BME280;68663;49.122;17.544;2023-06-26T09:32:47;99371.53;;;26.43;47.71
79230;BME280;68663;49.122;17.544;2023-06-26T09:35:13;99375.63;;;26.42;48.52
79230;BME280;68663;49.122;17.544;2023-06-26T09:37:39;99367.47;;;26.44;50.14
79230;BME280;68663;49.122;17.544;2023-06-26T09:40:05;99361.00;;;26.43;48.92
79230;BME280;68663;49.122;17.544;2023-06-26T09:42:32;99363.03;;;26.43;48.31
79230;BME280;68663;49.122;17.544;2023-06-26T09:44:57;99365.88;;;26.43;48.74
79230;BME280;68663;49.122;17.544;2023-06-26T09:47:23;99360.22;;;26.43;49.35
79230;BME280;68663;49.122;17.544;2023-06-26T09:49:49;99369.06;;;26.45;50.03
79230;BME280;68663;49.122;17.544;2023-06-26T09:52:16;99357.72;;;26.45;49.57
79230;BME280;68663;49.122;17.544;2023-06-26T09:54:42;99364.97;;;26.46;49.40
79230;BME280;68663;49.122;17.544;2023-06-26T09:57:14;99362.16;;;26.46;49.01
79230;BME280;68663;49.122;17.544;2023-06-26T09:59:41;99360.91;;;26.47;49.25
79230;BME280;68663;49.122;17.544;2023-06-26T10:02:07;99361.69;;;26.47;48.91
79230;BME280;68663;49.122;17.544;2023-06-26T10:04:33;99361.69;;;26.47;49.15
79230;BME280;68663;49.122;17.544;2023-06-26T10:07:02;99360.00;;;26.50;48.83
79230;BME280;68663;49.122;17.544;2023-06-26T10:09:30;99353.53;;;26.49;48.83
79230;BME280;68663;49.122;17.544;2023-06-26T10:12:05;99350.72;;;26.49;48.93
79230;BME280;68663;49.122;17.544;2023-06-26T10:14:34;99361.59;;;26.51;48.88
79230;BME280;68663;49.122;17.544;2023-06-26T10:17:10;99352.75;;;26.49;48.82
79230;BME280;68663;49.122;17.544;2023-06-26T10:19:39;99349.91;;;26.49;48.39
79230;BME280;68663;49.122;17.544;2023-06-26T10:22:07;99340.25;;;26.46;48.64
79230;BME280;68663;49.122;17.544;2023-06-26T10:24:35;99342.31;;;26.46;48.29
79230;BME280;68663;49.122;17.544;2023-06-26T10:27:20;99346.38;;;26.45;48.25
79230;BME280;68663;49.122;17.544;2023-06-26T10:29:57;99341.50;;;26.45;47.95
79230;BME280;68663;49.122;17.544;2023-06-26T10:32:26;99346.38;;;26.45;48.00
79230;BME280;68663;49.122;17.544;2023-06-26T10:34:53;99336.63;;;26.46;47.84
79230;BME280;68663;49.122;17.544;2023-06-26T10:37:19;99336.63;;;26.46;47.80
79230;BME280;68663;49.122;17.544;2023-06-26T10:39:52;99326.88;;;26.47;48.04
79230;BME280;68663;49.122;17.544;2023-06-26T10:42:34;99326.88;;;26.47;47.84
79230;BME280;68663;49.122;17.544;2023-06-26T10:45:15;99327.22;;;26.49;47.96
79230;BME280;68663;49.122;17.544;2023-06-26T10:47:41;99326.00;;;26.50;47.92
79230;BME280;68663;49.122;17.544;2023-06-26T10:50:21;99323.16;;;26.50;47.79
79230;BME280;68663;49.122;17.544;2023-06-26T10:55:32;99317.03;;;26.51;48.04
79230;BME280;68663;49.122;17.544;2023-06-26T10:57:57;99317.84;;;26.52;48.15
79230;BME280;68663;49.122;17.544;2023-06-26T11:00:23;99313.75;;;26.53;48.08
79230;BME280;68663;49.122;17.544;2023-06-26T11:02:49;99313.75;;;26.53;47.93
79230;BME280;68663;49.122;17.544;2023-06-26T11:05:26;99313.75;;;26.53;48.23
79230;BME280;68663;49.122;17.544;2023-06-26T11:08:07;99315.00;;;26.52;48.09
79230;BME280;68663;49.122;17.544;2023-06-26T11:10:52;99312.16;;;26.52;48.17
79230;BME280;68663;49.122;17.544;2023-06-26T11:13:19;99303.66;;;26.52;48.05
79230;BME280;68663;49.122;17.544;2023-06-26T11:15:46;99305.69;;;26.51;48.48
79230;BME280;68663;49.122;17.544;2023-06-26T11:18:12;99306.50;;;26.52;48.14
79230;BME280;68663;49.122;17.544;2023-06-26T11:20:39;99302.06;;;26.51;48.18
79230;BME280;68663;49.122;17.544;2023-06-26T11:23:04;99305.69;;;26.51;48.06
79230;BME280;68663;49.122;17.544;2023-06-26T11:25:36;99304.56;;;26.49;48.20
79230;BME280;68663;49.122;17.544;2023-06-26T11:28:05;99304.19;;;26.47;47.99
79230;BME280;68663;49.122;17.544;2023-06-26T11:30:31;99303.75;;;26.48;48.45
79230;BME280;68663;49.122;17.544;2023-06-26T11:33:08;99304.56;;;26.49;48.49
79230;BME280;68663;49.122;17.544;2023-06-26T11:35:34;99309.78;;;26.50;48.36
79230;BME280;68663;49.122;17.544;2023-06-26T11:38:01;99307.38;;;26.49;48.67
79230;BME280;68663;49.122;17.544;2023-06-26T11:40:30;99299.78;;;26.46;48.62
79230;BME280;68663;49.122;17.544;2023-06-26T11:43:01;99292.88;;;26.47;48.81
79230;BME280;68663;49.122;17.544;2023-06-26T11:45:31;99293.66;;;26.47;48.62
79230;BME280;68663;49.122;17.544;2023-06-26T11:47:58;99284.81;;;26.45;48.57
79230;BME280;68663;49.122;17.544;2023-06-26T11:50:23;99288.00;;;26.47;48.80
79230;BME280;68663;49.122;17.544;2023-06-26T11:52:53;99295.25;;;26.48;48.93
79230;BME280;68663;49.122;17.544;2023-06-26T11:55:20;99294.81;;;26.50;48.90
79230;BME280;68663;49.122;17.544;2023-06-26T11:57:55;99289.56;;;26.48;48.63
79230;BME280;68663;49.122;17.544;2023-06-26T12:00:21;99291.97;;;26.50;49.07
79230;BME280;68663;49.122;17.544;2023-06-26T12:02:47;99290.72;;;26.51;49.01
79230;BME280;68663;49.122;17.544;2023-06-26T12:05:16;99292.75;;;26.50;48.76
79230;BME280;68663;49.122;17.544;2023-06-26T12:07:43;99289.13;;;26.50;48.55
79230;BME280;68663;49.122;17.544;2023-06-26T12:10:13;99291.97;;;26.50;48.30
79230;BME280;68663;49.122;17.544;2023-06-26T12:12:39;99292.06;;;26.46;47.76
79230;BME280;68663;49.122;17.544;2023-06-26T12:15:06;99289.22;;;26.46;47.70
79230;BME280;68663;49.122;17.544;2023-06-26T12:17:32;99283.56;;;26.46;48.01
79230;BME280;68663;49.122;17.544;2023-06-26T12:19:58;99284.69;;;26.49;48.04
79230;BME280;68663;49.122;17.544;2023-06-26T12:22:24;99296.84;;;26.49;48.11
79230;BME280;68663;49.122;17.544;2023-06-26T12:24:49;99276.19;;;26.49;48.04
79230;BME280;68663;49.122;17.544;2023-06-26T12:27:17;99291.16;;;26.49;48.00
79230;BME280;68663;49.122;17.544;2023-06-26T12:29:51;99279.81;;;26.49;48.10
79230;BME280;68663;49.122;17.544;2023-06-26T12:32:17;99275.75;;;26.50;47.80
79230;BME280;68663;49.122;17.544;2023-06-26T12:34:48;99285.50;;;26.49;48.10
79230;BME280;68663;49.122;17.544;2023-06-26T12:37:13;99291.97;;;26.50;48.07
79230;BME280;68663;49.122;17.544;2023-06-26T12:39:56;99284.69;;;26.49;48.06
79230;BME280;68663;49.122;17.544;2023-06-26T12:42:26;99286.28;;;26.50;48.35
79230;BME280;68663;49.122;17.544;2023-06-26T12:44:53;99287.09;;;26.50;48.07
79230;BME280;68663;49.122;17.544;2023-06-26T12:47:30;99279.03;;;26.49;48.45
79230;BME280;68663;49.122;17.544;2023-06-26T12:49:56;99273.81;;;26.47;48.13
79230;BME280;68663;49.122;17.544;2023-06-26T12:52:22;99271.78;;;26.48;48.30
79230;BME280;68663;49.122;17.544;2023-06-26T12:54:52;99265.75;;;26.46;48.26
79230;BME280;68663;49.122;17.544;2023-06-26T12:57:18;99255.66;;;26.45;48.18
79230;BME280;68663;49.122;17.544;2023-06-26T12:59:44;99261.34;;;26.45;48.23